Detall de PIREP

Printer-friendly versionPDF version

[2010/02/03 08:02:00]
Flight IATA:CT2110
Pilot Number:041
Company ICAO:CAT
Aircraft Type:F50/A
PAX:30
Departing Airport: LEVC
Destination Airport: LEST
Alternate Airport:LECO
Online: VATSIM
Route:CENTA2A A33 PRADO A33 CJN A33 HORTA A33 MAGIN A33 INDEG A33 DISKO A33 ZMR A33 BARKO1G


Flight Level:FL190
No Slew and time accel
No pause
Crash detect
Detect pilot in Cockpit between each 30 and 45 minutes
08:02 Zero fuel Weight: 35101 Lbs, Fuel Weight: 5079 Lbs
08:02 VATSIM:LEVC 030730Z 26004KT CAVOK 01/M00 Q1021 NOSIG
08:02 VATSIM:LEST 030730Z 10003KT CAVOK 02/M00 Q1017 NOSIG
08:02 VOICE CATALONIAN
08:03 Parking Brakes off
08:11 Take-off
08:11 Take off Weight: 40080 Lbs
08:11 Wind: 263º @ 003 Knots Heading: 295º
08:11 POS N39º 29´ 28´´ W000º 29´ 13´´
08:11 Gear Up: 143 Knots
08:11 Flaps:1 at 143 Knots
08:11 Flaps:0 at 140 Knots
08:26 Wind:307º@024 Knots Heading: 30
0º Ground Speed: 194 Knots Altitude 18435 ft
08:26 TOC
08:26 Fuel Weight: 4425 Lb
08:41 Wind:329º@024 Knots Heading: 301º Ground Speed: 240 Knots Altitude 19255 ft
08:56 Wind:337º@024 Knots Heading: 299º Ground Speed: 246 Knots Altitude 19219 ft
09:11 Wind:007º@027 Knots Heading: 301º Ground Speed: 249 Knots Altitude 19156 ft
09:23 TOD
09:23 Fuel Weight: 2717 Lb
09:26 Wind:334º@012 Knots Heading: 306º Ground Speed: 235 Knots Altitude 17089 ft
09:41 Wind:199º@008 Knots Heading: 302º Ground Speed: 242 Knots Altitude 5994 ft
09:56 Wind:110º@007 Knots Heading: 308º Ground Speed: 203 Knots Altitude 3979 ft
10:00 Flaps:1 at 166 Knots
10:00 Flaps:2 at 148 Knots
10:00 Flaps:3 at 147 Knots
10:03 Flaps:4 at 133 Knots
10:03 Gear Down: 127 Knots
10:04 Flaps:5 at 114 Knots
10:04 Flaps:6 at 96 Knots
10:08 TouchDown:Rate -498 ft/min Speed: 87 Knots
10:09 VATSIM:LEST 031000
Z 13007KT CAVOK 07/01 Q1017 NOSIG
10:09 Land
10:09 Wind:116º@007 Knots
10:09 Heading: 165º
10:09 Flight Duration: 01:58
10:09 Landing Weight: 36830 Lbs
10:09 POS N42º 54´ 25´´ W008º 25´ 07´´
10:12 Parking brakes on
10:12 Block to Block Duration: 02:09
10:12 Final Fuel: 1688 Lbls
10:12 Spent Fuel: 3390 Lbls
10:12 Flight Length: 432 NM
10:12 TOD Land Length: 156 NM

Exportar CSV

Powered by Drupal - Modified by Danger4k